Pagrindinis puslapis
METAR-TAF:

METAR-TAF

Oro uostai :

Skaka, Saudo Arabija

platuma: 29-47N, ilguma: 040-06E, Aukštis: 689 m

Dabartinis oras

Ataskaita buvo paskelbta 46 minutes, ne 13:00 UTC
Vėjas 11 kt iš Pietų/Pietvakarių
Temperatūra 35°C
Drėgmė 7%
Slėgis 1008 hPa
Matomumas 10 km arba daugiau
nėra debesų žemiau 1500 m ir nėra kamuolinių lietaus debesų

METAR: OESK 201300Z 21011KT CAVOK 35/M05 Q1008 NOSIG

Laikas: 16:46 (13:46 UTC)

Prognozė

Ataskaita buvo paskelbta 2 valandos ir 46 minutes, ne 11:00 UTC
Prognozė galioja nuo 20 metu 12 UTC su 21 metu 18 UTC
Vėjas 10 kt iš Pietų
Matomumas 10 km arba daugiau
nėra debesų žemiau 1500 m ir nėra kamuolinių lietaus debesų
Tapsmas
nuo 20 metu 18 UTC su 20 metu 21 UTC
Vėjas 15 kt iš Šiaurės Vakarų
Matomumas: 7000 m

TAF: OESK 201100Z 2012/2118 19010KT CAVOK BECMG 2018/2021 32015KT 7000 NSC

Orai ataskaitas ir orų prognozės (METAR, TAF).

turimą stotys yra geltonos ir raudonos taškus žemėlapyje.

Perkelti pele per norėdami pamatyti stoties vardą.

Tada spustelėkite, norėdami matyti oro stebėjimo ir prognozės.

Norėdami pakeisti žemėlapį: spustelėkite ant žalios mygtukų su juodo kryžiaus žemyn,; žalią mygtuką su brūkšneliu, jei norite nutolinti; arba žalių rodyklių gretimoms žemėlapius.


METAR-TAF: